createdAt,value
2023-10-29T00:05:05.773Z,70.43
2023-10-29T00:10:10.926Z,70.60
2023-10-29T00:15:14.868Z,71.18
2023-10-29T00:20:20.751Z,71.86
2023-10-29T00:25:25.196Z,71.21
2023-10-29T00:30:29.054Z,71.27
2023-10-29T00:35:34.433Z,72.19
2023-10-29T00:40:40.525Z,71.54
2023-10-29T00:45:45.859Z,71.81
2023-10-29T00:50:51.946Z,73.14
2023-10-29T00:55:57.198Z,72.99
2023-10-29T01:01:01.172Z,73.15
2023-10-29T01:06:09.614Z,73.17
2023-10-29T01:11:14.594Z,74.18
2023-10-29T01:16:18.666Z,73.45
2023-10-29T01:21:24.329Z,74.69
2023-10-29T01:26:28.262Z,73.95
2023-10-29T01:31:32.163Z,72.30
2023-10-29T01:36:37.411Z,72.17
2023-10-29T01:41:41.310Z,73.94
2023-10-29T01:46:45.269Z,74.81
2023-10-29T01:51:51.502Z,74.28
2023-10-29T01:56:55.366Z,74.37
2023-10-29T02:01:59.373Z,75.29
2023-10-29T02:07:04.721Z,74.31
2023-10-29T02:12:09.986Z,75.29
2023-10-29T02:17:14.269Z,74.50
2023-10-29T02:22:19.790Z,75.49
2023-10-29T02:27:24.068Z,74.19
2023-10-29T02:32:28.287Z,75.18
2023-10-29T02:37:35.411Z,75.17
2023-10-29T02:42:39.304Z,74.82
2023-10-29T02:47:43.182Z,75.46
2023-10-29T02:52:48.524Z,76.15
2023-10-29T02:57:52.340Z,75.80
2023-10-29T03:02:56.318Z,74.71
2023-10-29T03:08:02.010Z,74.75
2023-10-29T03:13:05.873Z,75.11
2023-10-29T03:18:09.787Z,73.87
2023-10-29T03:23:15.261Z,74.94
2023-10-29T03:28:19.138Z,75.80
2023-10-29T03:33:23.433Z,75.06
2023-10-29T03:38:28.890Z,75.24
2023-10-29T03:43:34.371Z,75.93
2023-10-29T03:48:44.367Z,75.41
2023-10-29T03:53:50.490Z,75.90
2023-10-29T03:58:54.382Z,76.43
2023-10-29T04:03:58.302Z,75.95
2023-10-29T04:09:03.631Z,76.66
2023-10-29T04:14:07.743Z,76.13
2023-10-29T04:19:11.824Z,76.44
2023-10-29T04:24:17.436Z,76.50
2023-10-29T04:29:23.767Z,76.63
2023-10-29T04:34:27.624Z,76.02
2023-10-29T04:39:33.784Z,76.01
2023-10-29T04:44:37.682Z,75.87
2023-10-29T04:49:41.689Z,76.18
2023-10-29T04:54:47.655Z,76.24
2023-10-29T04:59:53.568Z,77.58
2023-10-29T05:04:58.776Z,76.77
2023-10-29T05:10:04.215Z,76.94
2023-10-29T05:15:09.773Z,76.46
2023-10-29T05:20:14.357Z,76.51
2023-10-29T05:25:19.651Z,75.88
2023-10-29T05:30:25.440Z,75.58
2023-10-29T05:35:29.527Z,74.25
2023-10-29T05:40:35.056Z,73.55
2023-10-29T05:45:39.018Z,74.70
2023-10-29T05:50:43.056Z,74.09
2023-10-29T05:55:48.322Z,72.87
2023-10-29T06:00:52.531Z,74.30
2023-10-29T06:05:57.007Z,73.01
2023-10-29T06:11:02.349Z,72.54
2023-10-29T06:16:09.728Z,70.76
2023-10-29T06:21:13.644Z,66.76
2023-10-29T06:26:19.301Z,64.62
2023-10-29T06:31:29.725Z,60.11
2023-10-29T06:36:33.955Z,56.62
2023-10-29T06:41:39.282Z,54.56
2023-10-29T06:46:43.294Z,52.01
2023-10-29T06:51:47.129Z,50.85
2023-10-29T06:56:52.547Z,48.69
2023-10-29T07:01:58.033Z,47.14
2023-10-29T07:07:02.085Z,47.02
2023-10-29T07:12:08.791Z,45.80
2023-10-29T07:17:12.711Z,46.50
2023-10-29T07:22:16.585Z,45.14
2023-10-29T07:27:21.865Z,42.21
2023-10-29T07:32:25.710Z,40.75
2023-10-29T07:37:29.601Z,39.00
2023-10-29T07:42:34.842Z,39.17
2023-10-29T07:47:38.740Z,40.24
2023-10-29T07:52:42.632Z,39.45
2023-10-29T07:57:47.937Z,38.08
2023-10-29T08:02:51.865Z,35.42
2023-10-29T08:07:56.042Z,36.19
2023-10-29T08:13:01.658Z,35.97
2023-10-29T08:18:05.974Z,36.16
2023-10-29T08:23:10.640Z,35.82
2023-10-29T08:28:15.884Z,34.16
2023-10-29T08:33:21.016Z,34.44
2023-10-29T08:38:24.857Z,33.51
2023-10-29T08:43:31.705Z,34.41
2023-10-29T08:48:38.742Z,34.01
2023-10-29T08:53:43.382Z,33.89
2023-10-29T08:58:48.737Z,32.13
2023-10-29T09:03:54.868Z,32.24
2023-10-29T09:09:04.342Z,31.29
2023-10-29T09:14:11.959Z,32.67
2023-10-29T09:19:16.050Z,32.50
2023-10-29T09:24:20.025Z,31.42
2023-10-29T09:29:25.420Z,29.56
2023-10-29T09:34:29.220Z,27.54
2023-10-29T09:39:33.441Z,26.16
2023-10-29T09:44:42.949Z,24.64
2023-10-29T09:49:47.197Z,23.78
2023-10-29T09:54:52.909Z,23.85
2023-10-29T09:59:58.264Z,22.52
2023-10-29T10:05:05.593Z,22.60
2023-10-29T10:10:11.440Z,22.58
2023-10-29T10:15:17.954Z,23.10
2023-10-29T10:20:24.100Z,20.64
2023-10-29T10:25:29.998Z,20.21
2023-10-29T10:30:37.334Z,20.26
2023-10-29T10:35:45.528Z,21.18
2023-10-29T10:40:57.644Z,21.68
2023-10-29T10:46:06.844Z,23.06
2023-10-29T10:51:13.411Z,22.32
2023-10-29T10:56:18.305Z,21.88
2023-10-29T11:01:26.540Z,21.31
2023-10-29T11:06:30.744Z,22.07
2023-10-29T11:11:36.674Z,22.26
2023-10-29T11:16:52.816Z,22.21
2023-10-29T11:22:29.815Z,21.61
2023-10-29T11:27:37.808Z,22.24
2023-10-29T11:32:43.331Z,21.39
2023-10-29T11:37:48.219Z,22.14
2023-10-29T11:42:52.333Z,22.11
2023-10-29T11:48:14.359Z,21.61
2023-10-29T11:53:27.543Z,22.89
2023-10-29T11:58:31.378Z,22.90
2023-10-29T12:03:36.959Z,22.13
2023-10-29T12:08:42.436Z,22.63
2023-10-29T12:13:48.817Z,22.64
2023-10-29T12:18:55.596Z,22.03
2023-10-29T12:24:02.969Z,21.79
2023-10-29T12:29:08.473Z,21.77
2023-10-29T12:34:13.924Z,22.81
2023-10-29T12:39:18.021Z,23.10
2023-10-29T12:44:22.849Z,22.40
2023-10-29T12:49:34.947Z,22.54
2023-10-29T12:54:45.347Z,22.53
2023-10-29T12:59:49.444Z,22.08
2023-10-29T13:04:54.789Z,22.20
2023-10-29T13:10:01.266Z,22.32
2023-10-29T13:15:05.797Z,22.60
2023-10-29T13:20:13.087Z,23.03
2023-10-29T13:25:17.797Z,23.63
2023-10-29T13:30:21.909Z,23.20
2023-10-29T13:35:28.288Z,23.32
2023-10-29T13:40:33.364Z,22.99
2023-10-29T13:45:38.626Z,23.08
2023-10-29T13:50:43.989Z,23.36
2023-10-29T13:55:48.293Z,23.42
2023-10-29T14:00:52.256Z,23.45
2023-10-29T14:05:57.876Z,23.32
2023-10-29T14:11:02.317Z,23.18
2023-10-29T14:16:08.435Z,23.39
2023-10-29T14:21:13.773Z,24.42
2023-10-29T14:26:19.533Z,24.74
2023-10-29T14:31:23.344Z,25.02
2023-10-29T14:36:28.731Z,25.60
2023-10-29T14:41:32.712Z,26.18
2023-10-29T14:46:37.725Z,25.05
2023-10-29T14:51:42.966Z,26.20
2023-10-29T14:56:46.906Z,26.96
2023-10-29T15:01:53.428Z,28.07
2023-10-29T15:06:58.765Z,28.58
2023-10-29T15:12:04.776Z,30.23
2023-10-29T15:17:08.835Z,32.43
2023-10-29T15:22:14.423Z,34.54
2023-10-29T15:27:18.766Z,36.83
2023-10-29T15:32:23.160Z,38.24
2023-10-29T15:37:29.724Z,39.05
2023-10-29T15:42:35.268Z,40.69
2023-10-29T15:47:39.246Z,42.21
2023-10-29T15:52:44.871Z,42.64
2023-10-29T15:57:51.376Z,43.43
2023-10-29T16:02:56.138Z,44.76
2023-10-29T16:08:01.749Z,46.06
2023-10-29T16:13:06.334Z,47.35
2023-10-29T16:18:10.732Z,48.30
2023-10-29T16:23:16.345Z,49.26
2023-10-29T16:28:20.620Z,51.15
2023-10-29T16:33:24.785Z,51.91
2023-10-29T16:38:30.570Z,52.26
2023-10-29T16:43:34.706Z,52.40
2023-10-29T16:48:39.446Z,52.79
2023-10-29T16:53:46.467Z,53.87
2023-10-29T16:58:51.721Z,55.04
2023-10-29T17:03:55.754Z,55.70
2023-10-29T17:09:01.466Z,55.98
2023-10-29T17:14:06.352Z,55.58
2023-10-29T17:19:10.428Z,56.12
2023-10-29T17:24:15.928Z,56.44
2023-10-29T17:29:19.854Z,56.15
2023-10-29T17:34:23.748Z,56.43
2023-10-29T17:39:29.213Z,57.44
2023-10-29T17:44:36.052Z,56.80
2023-10-29T17:49:39.995Z,58.15
2023-10-29T17:54:45.355Z,58.30
2023-10-29T17:59:49.366Z,58.98
2023-10-29T18:04:53.448Z,58.96
2023-10-29T18:09:58.829Z,59.28
2023-10-29T18:15:05.053Z,60.26
2023-10-29T18:20:10.680Z,60.49
2023-10-29T18:25:16.196Z,61.06
2023-10-29T18:30:21.868Z,61.39
2023-10-29T18:35:25.909Z,60.93
2023-10-29T18:40:32.246Z,61.63
2023-10-29T18:45:41.521Z,62.37
2023-10-29T18:50:45.409Z,61.89
2023-10-29T18:55:50.740Z,61.76
2023-10-29T19:00:55.424Z,62.88
2023-10-29T19:05:59.476Z,64.18
2023-10-29T19:11:06.020Z,63.61
2023-10-29T19:16:10.324Z,63.32
2023-10-29T19:21:15.369Z,63.34
2023-10-29T19:26:21.091Z,63.22
2023-10-29T19:31:28.004Z,63.48
2023-10-29T19:36:37.246Z,63.20
2023-10-29T19:41:42.537Z,62.82
2023-10-29T19:46:46.682Z,63.08
2023-10-29T19:51:51.408Z,63.22
2023-10-29T19:56:58.303Z,64.08
2023-10-29T20:02:03.401Z,64.48
2023-10-29T20:07:10.106Z,64.23
2023-10-29T20:12:16.130Z,64.94
2023-10-29T20:17:20.212Z,65.79
2023-10-29T20:22:25.444Z,66.00
2023-10-29T20:27:31.029Z,67.06
2023-10-29T20:32:35.172Z,66.90
2023-10-29T20:37:39.327Z,66.85
2023-10-29T20:42:44.616Z,66.91
2023-10-29T20:47:49.688Z,66.35
2023-10-29T20:52:53.577Z,66.84
2023-10-29T20:57:59.476Z,67.73
2023-10-29T21:03:04.241Z,67.72
2023-10-29T21:08:08.309Z,67.85
2023-10-29T21:13:13.739Z,68.59
2023-10-29T21:18:17.642Z,68.61
2023-10-29T21:23:24.896Z,68.30
2023-10-29T21:28:30.369Z,68.44
2023-10-29T21:33:34.660Z,68.10
2023-10-29T21:38:39.320Z,68.05
2023-10-29T21:43:46.473Z,69.26
2023-10-29T21:48:50.762Z,69.94
2023-10-29T21:53:54.689Z,70.57
2023-10-29T21:59:00.358Z,70.91
2023-10-29T22:04:04.550Z,70.76
2023-10-29T22:09:09.992Z,70.75
2023-10-29T22:14:15.354Z,70.65
2023-10-29T22:19:19.759Z,70.88
2023-10-29T22:24:24.009Z,71.00
2023-10-29T22:29:30.226Z,71.52
2023-10-29T22:34:34.103Z,72.23
2023-10-29T22:39:38.101Z,72.65
2023-10-29T22:44:43.368Z,72.86
2023-10-29T22:49:47.728Z,73.86
2023-10-29T22:54:51.901Z,73.07
2023-10-29T22:59:58.774Z,73.34
2023-10-29T23:05:18.619Z,73.65
2023-10-29T23:10:25.228Z,73.01
2023-10-29T23:15:30.529Z,71.61
2023-10-29T23:20:36.064Z,72.08
2023-10-29T23:25:39.919Z,72.36
2023-10-29T23:30:45.807Z,73.17
2023-10-29T23:35:53.098Z,73.86
2023-10-29T23:40:58.452Z,74.35
2023-10-29T23:46:04.879Z,74.52
2023-10-29T23:51:09.102Z,73.84
2023-10-29T23:56:13.068Z,74.62
